sensor_id;sensor_type;location;lat;lon;timestamp;P1;durP1;ratioP1;P2;durP2;ratioP2
462;SDS011;218;51.902;9.542;2023-03-23T00:00:56;2.60;;;2.50;;
462;SDS011;218;51.902;9.542;2023-03-23T00:03:23;2.93;;;2.60;;
462;SDS011;218;51.902;9.542;2023-03-23T00:05:52;2.97;;;2.47;;
462;SDS011;218;51.902;9.542;2023-03-23T00:08:27;3.37;;;3.07;;
462;SDS011;218;51.902;9.542;2023-03-23T00:10:55;3.23;;;3.03;;
462;SDS011;218;51.902;9.542;2023-03-23T00:13:22;2.83;;;2.63;;
462;SDS011;218;51.902;9.542;2023-03-23T00:15:50;3.20;;;3.00;;
462;SDS011;218;51.902;9.542;2023-03-23T00:18:18;2.77;;;2.57;;
462;SDS011;218;51.902;9.542;2023-03-23T00:20:47;2.90;;;2.77;;
462;SDS011;218;51.902;9.542;2023-03-23T00:23:16;3.07;;;2.77;;
462;SDS011;218;51.902;9.542;2023-03-23T00:25:49;3.27;;;3.03;;
462;SDS011;218;51.902;9.542;2023-03-23T00:28:18;3.60;;;3.30;;
462;SDS011;218;51.902;9.542;2023-03-23T00:30:53;3.00;;;2.80;;
462;SDS011;218;51.902;9.542;2023-03-23T00:33:21;2.90;;;2.80;;
462;SDS011;218;51.902;9.542;2023-03-23T00:35:49;3.30;;;3.10;;
462;SDS011;218;51.902;9.542;2023-03-23T00:38:19;3.13;;;2.93;;
462;SDS011;218;51.902;9.542;2023-03-23T00:40:46;3.53;;;3.23;;
462;SDS011;218;51.902;9.542;2023-03-23T00:43:13;4.33;;;3.60;;
462;SDS011;218;51.902;9.542;2023-03-23T00:45:41;3.37;;;3.17;;
462;SDS011;218;51.902;9.542;2023-03-23T00:48:09;4.17;;;3.87;;
462;SDS011;218;51.902;9.542;2023-03-23T00:50:38;5.10;;;3.60;;
462;SDS011;218;51.902;9.542;2023-03-23T00:53:06;3.10;;;2.90;;
462;SDS011;218;51.902;9.542;2023-03-23T00:55:34;3.20;;;3.00;;
462;SDS011;218;51.902;9.542;2023-03-23T00:58:02;3.20;;;3.00;;
462;SDS011;218;51.902;9.542;2023-03-23T01:00:29;3.60;;;3.40;;
462;SDS011;218;51.902;9.542;2023-03-23T01:02:56;3.80;;;3.60;;
462;SDS011;218;51.902;9.542;2023-03-23T01:05:23;4.70;;;3.00;;
462;SDS011;218;51.902;9.542;2023-03-23T01:07:57;3.63;;;3.00;;
462;SDS011;218;51.902;9.542;2023-03-23T01:10:24;4.20;;;3.80;;
462;SDS011;218;51.902;9.542;2023-03-23T01:12:54;4.03;;;3.23;;
462;SDS011;218;51.902;9.542;2023-03-23T01:15:21;3.43;;;3.13;;
462;SDS011;218;51.902;9.542;2023-03-23T01:17:48;2.77;;;2.60;;
462;SDS011;218;51.902;9.542;2023-03-23T01:20:15;3.80;;;3.50;;
462;SDS011;218;51.902;9.542;2023-03-23T01:22:42;3.20;;;2.90;;
462;SDS011;218;51.902;9.542;2023-03-23T01:25:10;4.80;;;3.40;;
462;SDS011;218;51.902;9.542;2023-03-23T01:27:38;2.83;;;2.73;;
462;SDS011;218;51.902;9.542;2023-03-23T01:30:07;3.13;;;2.93;;
462;SDS011;218;51.902;9.542;2023-03-23T01:32:37;3.50;;;3.20;;
462;SDS011;218;51.902;9.542;2023-03-23T01:35:04;3.13;;;2.93;;
462;SDS011;218;51.902;9.542;2023-03-23T01:37:32;3.43;;;3.13;;
462;SDS011;218;51.902;9.542;2023-03-23T01:39:59;3.50;;;3.20;;
462;SDS011;218;51.902;9.542;2023-03-23T01:42:30;3.63;;;3.33;;
462;SDS011;218;51.902;9.542;2023-03-23T01:45:17;3.10;;;2.90;;
462;SDS011;218;51.902;9.542;2023-03-23T01:47:50;3.17;;;2.80;;
462;SDS011;218;51.902;9.542;2023-03-23T01:50:18;2.80;;;2.60;;
462;SDS011;218;51.902;9.542;2023-03-23T01:52:48;3.37;;;3.07;;
462;SDS011;218;51.902;9.542;2023-03-23T01:55:16;3.47;;;3.27;;
462;SDS011;218;51.902;9.542;2023-03-23T01:57:43;3.23;;;2.97;;
462;SDS011;218;51.902;9.542;2023-03-23T02:00:13;3.20;;;3.00;;
462;SDS011;218;51.902;9.542;2023-03-23T02:02:41;3.43;;;3.23;;
462;SDS011;218;51.902;9.542;2023-03-23T02:05:10;3.10;;;2.90;;
462;SDS011;218;51.902;9.542;2023-03-23T02:07:39;4.00;;;3.00;;
462;SDS011;218;51.902;9.542;2023-03-23T02:10:07;3.60;;;3.33;;
462;SDS011;218;51.902;9.542;2023-03-23T02:12:34;3.40;;;2.87;;
462;SDS011;218;51.902;9.542;2023-03-23T02:15:02;5.47;;;2.77;;
462;SDS011;218;51.902;9.542;2023-03-23T02:17:32;3.23;;;3.00;;
462;SDS011;218;51.902;9.542;2023-03-23T02:20:09;2.93;;;2.73;;
462;SDS011;218;51.902;9.542;2023-03-23T02:25:53;3.40;;;3.20;;
462;SDS011;218;51.902;9.542;2023-03-23T02:31:32;3.43;;;3.20;;
462;SDS011;218;51.902;9.542;2023-03-23T02:34:19;3.00;;;2.70;;
462;SDS011;218;51.902;9.542;2023-03-23T02:36:49;2.80;;;2.60;;
462;SDS011;218;51.902;9.542;2023-03-23T02:39:19;3.20;;;3.00;;
462;SDS011;218;51.902;9.542;2023-03-23T02:41:50;2.70;;;2.50;;
462;SDS011;218;51.902;9.542;2023-03-23T02:44:21;2.77;;;2.57;;
462;SDS011;218;51.902;9.542;2023-03-23T02:46:50;2.77;;;2.50;;
462;SDS011;218;51.902;9.542;2023-03-23T02:49:20;6.80;;;3.80;;
462;SDS011;218;51.902;9.542;2023-03-23T02:51:50;2.87;;;2.77;;
462;SDS011;218;51.902;9.542;2023-03-23T02:54:18;3.33;;;3.13;;
462;SDS011;218;51.902;9.542;2023-03-23T02:56:47;3.10;;;2.90;;
462;SDS011;218;51.902;9.542;2023-03-23T02:59:16;2.90;;;2.80;;
462;SDS011;218;51.902;9.542;2023-03-23T03:01:50;3.10;;;2.83;;
462;SDS011;218;51.902;9.542;2023-03-23T03:04:28;3.07;;;2.90;;
462;SDS011;218;51.902;9.542;2023-03-23T03:09:52;4.10;;;3.30;;
462;SDS011;218;51.902;9.542;2023-03-23T03:12:24;2.83;;;2.63;;
462;SDS011;218;51.902;9.542;2023-03-23T03:14:57;3.90;;;3.40;;
462;SDS011;218;51.902;9.542;2023-03-23T03:17:28;3.60;;;3.40;;
462;SDS011;218;51.902;9.542;2023-03-23T03:19:59;3.07;;;2.87;;
462;SDS011;218;51.902;9.542;2023-03-23T03:22:31;3.13;;;2.83;;
462;SDS011;218;51.902;9.542;2023-03-23T03:25:02;4.40;;;3.00;;
462;SDS011;218;51.902;9.542;2023-03-23T03:27:30;3.37;;;3.17;;
462;SDS011;218;51.902;9.542;2023-03-23T03:30:00;3.00;;;2.80;;
462;SDS011;218;51.902;9.542;2023-03-23T03:32:31;3.03;;;2.83;;
462;SDS011;218;51.902;9.542;2023-03-23T03:35:06;3.43;;;3.13;;
462;SDS011;218;51.902;9.542;2023-03-23T03:37:34;3.07;;;2.87;;
462;SDS011;218;51.902;9.542;2023-03-23T03:40:03;3.13;;;2.80;;
462;SDS011;218;51.902;9.542;2023-03-23T03:42:35;2.90;;;2.70;;
462;SDS011;218;51.902;9.542;2023-03-23T03:45:03;3.20;;;2.93;;
462;SDS011;218;51.902;9.542;2023-03-23T03:47:30;5.03;;;3.20;;
462;SDS011;218;51.902;9.542;2023-03-23T03:49:57;3.10;;;2.90;;
462;SDS011;218;51.902;9.542;2023-03-23T03:52:26;3.40;;;3.20;;
462;SDS011;218;51.902;9.542;2023-03-23T03:54:53;3.27;;;3.10;;
462;SDS011;218;51.902;9.542;2023-03-23T03:57:21;3.57;;;3.27;;
462;SDS011;218;51.902;9.542;2023-03-23T03:59:48;3.77;;;3.50;;
462;SDS011;218;51.902;9.542;2023-03-23T04:02:15;3.57;;;3.37;;
462;SDS011;218;51.902;9.542;2023-03-23T04:04:45;3.03;;;2.83;;
462;SDS011;218;51.902;9.542;2023-03-23T04:07:12;3.63;;;3.37;;
462;SDS011;218;51.902;9.542;2023-03-23T04:09:42;3.13;;;2.83;;
462;SDS011;218;51.902;9.542;2023-03-23T04:12:11;3.00;;;2.80;;
462;SDS011;218;51.902;9.542;2023-03-23T04:14:38;3.97;;;3.63;;
462;SDS011;218;51.902;9.542;2023-03-23T04:17:05;3.40;;;3.10;;
462;SDS011;218;51.902;9.542;2023-03-23T04:19:35;2.93;;;2.73;;
462;SDS011;218;51.902;9.542;2023-03-23T04:22:02;2.30;;;2.20;;
462;SDS011;218;51.902;9.542;2023-03-23T04:24:30;3.90;;;2.50;;
462;SDS011;218;51.902;9.542;2023-03-23T04:26:59;3.10;;;2.80;;
462;SDS011;218;51.902;9.542;2023-03-23T04:29:27;3.30;;;3.10;;
462;SDS011;218;51.902;9.542;2023-03-23T04:31:55;2.70;;;2.60;;
462;SDS011;218;51.902;9.542;2023-03-23T04:34:22;3.13;;;2.93;;
462;SDS011;218;51.902;9.542;2023-03-23T04:36:50;2.90;;;2.70;;
462;SDS011;218;51.902;9.542;2023-03-23T04:39:18;3.13;;;3.00;;
462;SDS011;218;51.902;9.542;2023-03-23T04:41:45;3.13;;;2.83;;
462;SDS011;218;51.902;9.542;2023-03-23T04:44:13;2.60;;;2.50;;
462;SDS011;218;51.902;9.542;2023-03-23T04:46:42;2.70;;;2.50;;
462;SDS011;218;51.902;9.542;2023-03-23T04:49:10;2.90;;;2.47;;
462;SDS011;218;51.902;9.542;2023-03-23T04:51:39;2.27;;;2.17;;
462;SDS011;218;51.902;9.542;2023-03-23T04:54:06;2.70;;;2.50;;
462;SDS011;218;51.902;9.542;2023-03-23T04:56:33;2.23;;;2.13;;
462;SDS011;218;51.902;9.542;2023-03-23T04:59:01;2.73;;;2.03;;
462;SDS011;218;51.902;9.542;2023-03-23T05:01:29;2.40;;;2.30;;
462;SDS011;218;51.902;9.542;2023-03-23T05:03:56;2.40;;;2.20;;
462;SDS011;218;51.902;9.542;2023-03-23T05:06:25;2.30;;;2.10;;
462;SDS011;218;51.902;9.542;2023-03-23T05:08:52;2.10;;;2.00;;
462;SDS011;218;51.902;9.542;2023-03-23T05:11:19;3.67;;;2.60;;
462;SDS011;218;51.902;9.542;2023-03-23T05:13:47;2.07;;;1.93;;
462;SDS011;218;51.902;9.542;2023-03-23T05:16:14;1.87;;;1.77;;
462;SDS011;218;51.902;9.542;2023-03-23T05:18:42;2.70;;;2.27;;
462;SDS011;218;51.902;9.542;2023-03-23T05:21:10;2.87;;;2.67;;
462;SDS011;218;51.902;9.542;2023-03-23T05:23:38;2.23;;;2.13;;
462;SDS011;218;51.902;9.542;2023-03-23T05:26:05;2.97;;;2.87;;
462;SDS011;218;51.902;9.542;2023-03-23T05:28:32;3.00;;;2.40;;
462;SDS011;218;51.902;9.542;2023-03-23T05:30:59;2.30;;;2.17;;
462;SDS011;218;51.902;9.542;2023-03-23T05:33:26;2.77;;;2.57;;
462;SDS011;218;51.902;9.542;2023-03-23T05:35:54;2.67;;;2.47;;
462;SDS011;218;51.902;9.542;2023-03-23T05:38:21;2.80;;;2.70;;
462;SDS011;218;51.902;9.542;2023-03-23T05:40:49;3.57;;;3.27;;
462;SDS011;218;51.902;9.542;2023-03-23T05:43:17;2.60;;;2.50;;
462;SDS011;218;51.902;9.542;2023-03-23T05:45:44;2.70;;;2.60;;
462;SDS011;218;51.902;9.542;2023-03-23T05:48:11;2.47;;;2.37;;
462;SDS011;218;51.902;9.542;2023-03-23T05:50:38;2.10;;;2.00;;
462;SDS011;218;51.902;9.542;2023-03-23T05:53:07;4.10;;;2.57;;
462;SDS011;218;51.902;9.542;2023-03-23T05:55:35;3.00;;;2.70;;
462;SDS011;218;51.902;9.542;2023-03-23T05:58:02;3.13;;;2.90;;
462;SDS011;218;51.902;9.542;2023-03-23T06:00:29;2.57;;;2.47;;
462;SDS011;218;51.902;9.542;2023-03-23T06:02:58;2.60;;;2.10;;
462;SDS011;218;51.902;9.542;2023-03-23T06:05:26;2.70;;;2.50;;
462;SDS011;218;51.902;9.542;2023-03-23T06:07:54;2.73;;;2.60;;
462;SDS011;218;51.902;9.542;2023-03-23T06:10:23;3.03;;;2.83;;
462;SDS011;218;51.902;9.542;2023-03-23T06:12:50;2.87;;;2.70;;
462;SDS011;218;51.902;9.542;2023-03-23T06:15:17;3.40;;;3.10;;
462;SDS011;218;51.902;9.542;2023-03-23T06:17:44;3.40;;;3.20;;
462;SDS011;218;51.902;9.542;2023-03-23T06:20:12;3.10;;;2.80;;
462;SDS011;218;51.902;9.542;2023-03-23T06:22:39;2.20;;;2.10;;
462;SDS011;218;51.902;9.542;2023-03-23T06:25:06;2.43;;;2.23;;
462;SDS011;218;51.902;9.542;2023-03-23T06:27:35;2.60;;;2.50;;
462;SDS011;218;51.902;9.542;2023-03-23T06:30:03;2.50;;;2.30;;
462;SDS011;218;51.902;9.542;2023-03-23T06:32:31;2.77;;;2.57;;
462;SDS011;218;51.902;9.542;2023-03-23T06:34:59;2.33;;;2.13;;
462;SDS011;218;51.902;9.542;2023-03-23T06:37:26;2.80;;;2.60;;
462;SDS011;218;51.902;9.542;2023-03-23T06:39:54;2.33;;;2.23;;
462;SDS011;218;51.902;9.542;2023-03-23T06:42:21;2.50;;;2.10;;
462;SDS011;218;51.902;9.542;2023-03-23T06:44:51;2.57;;;2.47;;
462;SDS011;218;51.902;9.542;2023-03-23T06:47:21;2.50;;;2.30;;
462;SDS011;218;51.902;9.542;2023-03-23T06:49:49;2.37;;;2.27;;
462;SDS011;218;51.902;9.542;2023-03-23T06:52:15;3.00;;;2.60;;
462;SDS011;218;51.902;9.542;2023-03-23T06:54:43;2.60;;;2.43;;
462;SDS011;218;51.902;9.542;2023-03-23T06:57:10;2.33;;;2.23;;
462;SDS011;218;51.902;9.542;2023-03-23T06:59:37;3.37;;;3.00;;
462;SDS011;218;51.902;9.542;2023-03-23T07:02:05;3.37;;;3.07;;
462;SDS011;218;51.902;9.542;2023-03-23T07:04:32;2.87;;;2.67;;
462;SDS011;218;51.902;9.542;2023-03-23T07:07:00;3.13;;;2.87;;
462;SDS011;218;51.902;9.542;2023-03-23T07:09:27;3.13;;;2.80;;
462;SDS011;218;51.902;9.542;2023-03-23T07:11:54;3.10;;;2.90;;
462;SDS011;218;51.902;9.542;2023-03-23T07:14:21;2.80;;;2.50;;
462;SDS011;218;51.902;9.542;2023-03-23T07:16:48;2.73;;;2.53;;
462;SDS011;218;51.902;9.542;2023-03-23T07:19:17;2.80;;;2.60;;
462;SDS011;218;51.902;9.542;2023-03-23T07:21:44;3.17;;;2.97;;
462;SDS011;218;51.902;9.542;2023-03-23T07:24:11;2.80;;;2.60;;
462;SDS011;218;51.902;9.542;2023-03-23T07:26:39;3.13;;;2.60;;
462;SDS011;218;51.902;9.542;2023-03-23T07:29:07;3.00;;;2.80;;
462;SDS011;218;51.902;9.542;2023-03-23T07:31:34;2.33;;;2.20;;
462;SDS011;218;51.902;9.542;2023-03-23T07:34:02;2.90;;;2.70;;
462;SDS011;218;51.902;9.542;2023-03-23T07:36:30;3.53;;;3.27;;
462;SDS011;218;51.902;9.542;2023-03-23T07:38:57;3.00;;;2.80;;
462;SDS011;218;51.902;9.542;2023-03-23T07:41:24;2.80;;;2.70;;
462;SDS011;218;51.902;9.542;2023-03-23T07:43:52;2.80;;;2.43;;
462;SDS011;218;51.902;9.542;2023-03-23T07:46:18;2.53;;;2.43;;
462;SDS011;218;51.902;9.542;2023-03-23T07:48:46;2.57;;;2.37;;
462;SDS011;218;51.902;9.542;2023-03-23T07:51:14;3.40;;;3.20;;
462;SDS011;218;51.902;9.542;2023-03-23T07:53:42;3.20;;;3.00;;
462;SDS011;218;51.902;9.542;2023-03-23T07:56:12;2.90;;;2.67;;
462;SDS011;218;51.902;9.542;2023-03-23T07:58:39;4.30;;;4.00;;
462;SDS011;218;51.902;9.542;2023-03-23T08:01:07;3.30;;;3.10;;
462;SDS011;218;51.902;9.542;2023-03-23T08:03:33;5.00;;;3.50;;
462;SDS011;218;51.902;9.542;2023-03-23T08:06:01;3.57;;;3.27;;
462;SDS011;218;51.902;9.542;2023-03-23T08:08:28;3.13;;;2.93;;
462;SDS011;218;51.902;9.542;2023-03-23T08:10:58;3.00;;;2.80;;
462;SDS011;218;51.902;9.542;2023-03-23T08:13:25;2.80;;;2.60;;
462;SDS011;218;51.902;9.542;2023-03-23T08:15:52;2.57;;;2.47;;
462;SDS011;218;51.902;9.542;2023-03-23T08:18:18;2.77;;;2.57;;
462;SDS011;218;51.902;9.542;2023-03-23T08:20:45;3.13;;;2.93;;
462;SDS011;218;51.902;9.542;2023-03-23T08:23:13;2.77;;;2.57;;
462;SDS011;218;51.902;9.542;2023-03-23T08:25:41;3.17;;;3.07;;
462;SDS011;218;51.902;9.542;2023-03-23T08:28:10;3.07;;;2.87;;
462;SDS011;218;51.902;9.542;2023-03-23T08:30:39;4.20;;;2.70;;
462;SDS011;218;51.902;9.542;2023-03-23T08:33:06;3.83;;;3.53;;
462;SDS011;218;51.902;9.542;2023-03-23T08:35:35;3.33;;;3.13;;
462;SDS011;218;51.902;9.542;2023-03-23T08:38:02;3.07;;;2.87;;
462;SDS011;218;51.902;9.542;2023-03-23T08:40:29;3.70;;;3.17;;
462;SDS011;218;51.902;9.542;2023-03-23T08:42:57;4.03;;;2.90;;
462;SDS011;218;51.902;9.542;2023-03-23T08:45:25;4.10;;;3.40;;
462;SDS011;218;51.902;9.542;2023-03-23T08:47:52;3.73;;;3.53;;
462;SDS011;218;51.902;9.542;2023-03-23T08:50:21;3.63;;;3.43;;
462;SDS011;218;51.902;9.542;2023-03-23T08:52:48;5.57;;;2.97;;
462;SDS011;218;51.902;9.542;2023-03-23T08:55:16;3.53;;;2.70;;
462;SDS011;218;51.902;9.542;2023-03-23T08:57:43;3.67;;;3.07;;
462;SDS011;218;51.902;9.542;2023-03-23T09:00:11;3.17;;;2.90;;
462;SDS011;218;51.902;9.542;2023-03-23T09:02:44;3.40;;;3.20;;
462;SDS011;218;51.902;9.542;2023-03-23T09:05:13;3.27;;;2.97;;
462;SDS011;218;51.902;9.542;2023-03-23T09:07:43;3.13;;;2.83;;
462;SDS011;218;51.902;9.542;2023-03-23T09:10:11;2.73;;;2.53;;
462;SDS011;218;51.902;9.542;2023-03-23T09:12:38;3.50;;;3.20;;
462;SDS011;218;51.902;9.542;2023-03-23T09:15:06;4.10;;;3.20;;
462;SDS011;218;51.902;9.542;2023-03-23T09:17:34;3.83;;;3.20;;
462;SDS011;218;51.902;9.542;2023-03-23T09:20:04;5.87;;;3.57;;
462;SDS011;218;51.902;9.542;2023-03-23T09:22:35;3.87;;;3.57;;
462;SDS011;218;51.902;9.542;2023-03-23T09:25:03;2.83;;;2.63;;
462;SDS011;218;51.902;9.542;2023-03-23T09:27:31;3.00;;;2.80;;
462;SDS011;218;51.902;9.542;2023-03-23T09:29:58;2.90;;;2.70;;
462;SDS011;218;51.902;9.542;2023-03-23T09:32:26;3.20;;;3.00;;
462;SDS011;218;51.902;9.542;2023-03-23T09:34:53;3.97;;;3.57;;
462;SDS011;218;51.902;9.542;2023-03-23T09:37:22;3.83;;;3.43;;
462;SDS011;218;51.902;9.542;2023-03-23T09:39:49;4.10;;;2.80;;
462;SDS011;218;51.902;9.542;2023-03-23T09:45:10;3.23;;;2.70;;
462;SDS011;218;51.902;9.542;2023-03-23T09:47:40;3.13;;;2.83;;
462;SDS011;218;51.902;9.542;2023-03-23T09:50:16;2.83;;;2.30;;
462;SDS011;218;51.902;9.542;2023-03-23T09:52:47;3.20;;;3.00;;
462;SDS011;218;51.902;9.542;2023-03-23T09:55:18;3.33;;;3.13;;
462;SDS011;218;51.902;9.542;2023-03-23T09:57:57;3.13;;;2.83;;
462;SDS011;218;51.902;9.542;2023-03-23T10:00:26;3.17;;;2.97;;
462;SDS011;218;51.902;9.542;2023-03-23T10:02:59;3.23;;;2.97;;
462;SDS011;218;51.902;9.542;2023-03-23T10:05:32;4.03;;;3.23;;
462;SDS011;218;51.902;9.542;2023-03-23T10:08:02;3.73;;;3.17;;
462;SDS011;218;51.902;9.542;2023-03-23T10:10:44;3.40;;;3.10;;
462;SDS011;218;51.902;9.542;2023-03-23T10:13:19;3.43;;;2.90;;
462;SDS011;218;51.902;9.542;2023-03-23T10:15:52;3.30;;;3.07;;
462;SDS011;218;51.902;9.542;2023-03-23T10:18:23;3.30;;;2.90;;
462;SDS011;218;51.902;9.542;2023-03-23T10:20:56;4.90;;;2.90;;
462;SDS011;218;51.902;9.542;2023-03-23T10:23:37;6.20;;;2.87;;
462;SDS011;218;51.902;9.542;2023-03-23T10:26:13;3.80;;;3.03;;
462;SDS011;218;51.902;9.542;2023-03-23T10:28:49;6.30;;;3.50;;
462;SDS011;218;51.902;9.542;2023-03-23T10:31:19;2.77;;;2.40;;
462;SDS011;218;51.902;9.542;2023-03-23T10:33:50;3.57;;;3.27;;
462;SDS011;218;51.902;9.542;2023-03-23T10:36:21;2.90;;;2.60;;
462;SDS011;218;51.902;9.542;2023-03-23T10:38:55;2.80;;;2.50;;
462;SDS011;218;51.902;9.542;2023-03-23T10:41:25;2.93;;;2.73;;
462;SDS011;218;51.902;9.542;2023-03-23T10:43:52;4.00;;;2.93;;
462;SDS011;218;51.902;9.542;2023-03-23T10:46:22;2.83;;;2.30;;
462;SDS011;218;51.902;9.542;2023-03-23T10:49:01;3.40;;;2.57;;
462;SDS011;218;51.902;9.542;2023-03-23T10:51:31;4.20;;;3.13;;
462;SDS011;218;51.902;9.542;2023-03-23T10:54:02;3.20;;;3.00;;
462;SDS011;218;51.902;9.542;2023-03-23T10:56:34;4.20;;;3.17;;
462;SDS011;218;51.902;9.542;2023-03-23T10:59:13;3.50;;;3.27;;
462;SDS011;218;51.902;9.542;2023-03-23T11:01:45;3.50;;;3.20;;
462;SDS011;218;51.902;9.542;2023-03-23T11:04:16;3.87;;;3.33;;
462;SDS011;218;51.902;9.542;2023-03-23T11:06:45;3.13;;;2.90;;
462;SDS011;218;51.902;9.542;2023-03-23T11:09:16;3.57;;;3.00;;
462;SDS011;218;51.902;9.542;2023-03-23T11:11:48;5.03;;;2.90;;
462;SDS011;218;51.902;9.542;2023-03-23T11:14:17;2.53;;;2.33;;
462;SDS011;218;51.902;9.542;2023-03-23T11:16:49;4.97;;;3.17;;
462;SDS011;218;51.902;9.542;2023-03-23T11:19:21;4.13;;;3.27;;
462;SDS011;218;51.902;9.542;2023-03-23T11:21:50;5.00;;;2.90;;
462;SDS011;218;51.902;9.542;2023-03-23T11:24:22;3.70;;;3.33;;
462;SDS011;218;51.902;9.542;2023-03-23T11:26:51;3.27;;;2.50;;
462;SDS011;218;51.902;9.542;2023-03-23T11:29:19;3.83;;;3.07;;
462;SDS011;218;51.902;9.542;2023-03-23T11:31:49;5.83;;;3.27;;
462;SDS011;218;51.902;9.542;2023-03-23T11:34:19;3.17;;;2.40;;
462;SDS011;218;51.902;9.542;2023-03-23T11:36:48;4.20;;;2.53;;
462;SDS011;218;51.902;9.542;2023-03-23T11:39:23;4.83;;;2.57;;
462;SDS011;218;51.902;9.542;2023-03-23T11:41:51;2.17;;;2.00;;
462;SDS011;218;51.902;9.542;2023-03-23T11:44:19;3.10;;;2.50;;
462;SDS011;218;51.902;9.542;2023-03-23T11:46:49;5.30;;;3.30;;
462;SDS011;218;51.902;9.542;2023-03-23T11:49:30;3.73;;;2.70;;
462;SDS011;218;51.902;9.542;2023-03-23T11:52:05;7.07;;;3.23;;
462;SDS011;218;51.902;9.542;2023-03-23T11:54:42;3.20;;;2.20;;
462;SDS011;218;51.902;9.542;2023-03-23T11:57:13;3.00;;;2.30;;
462;SDS011;218;51.902;9.542;2023-03-23T11:59:41;2.40;;;2.20;;
462;SDS011;218;51.902;9.542;2023-03-23T12:08:01;3.17;;;2.80;;
462;SDS011;218;51.902;9.542;2023-03-23T12:10:49;3.20;;;2.90;;
462;SDS011;218;51.902;9.542;2023-03-23T12:13:26;4.10;;;2.90;;
462;SDS011;218;51.902;9.542;2023-03-23T12:16:03;5.63;;;3.00;;
462;SDS011;218;51.902;9.542;2023-03-23T12:18:40;3.10;;;2.60;;
462;SDS011;218;51.902;9.542;2023-03-23T12:21:16;3.33;;;2.70;;
462;SDS011;218;51.902;9.542;2023-03-23T12:23:50;5.27;;;2.83;;
462;SDS011;218;51.902;9.542;2023-03-23T12:26:27;5.33;;;2.80;;
462;SDS011;218;51.902;9.542;2023-03-23T12:29:04;4.77;;;2.83;;
462;SDS011;218;51.902;9.542;2023-03-23T12:31:40;6.00;;;3.43;;
462;SDS011;218;51.902;9.542;2023-03-23T12:34:17;8.43;;;2.70;;
462;SDS011;218;51.902;9.542;2023-03-23T12:36:56;3.77;;;2.63;;
462;SDS011;218;51.902;9.542;2023-03-23T12:42:40;2.43;;;2.30;;
462;SDS011;218;51.902;9.542;2023-03-23T12:45:18;4.47;;;2.70;;
462;SDS011;218;51.902;9.542;2023-03-23T12:47:50;5.47;;;2.83;;
462;SDS011;218;51.902;9.542;2023-03-23T12:50:24;4.80;;;3.30;;
462;SDS011;218;51.902;9.542;2023-03-23T12:52:57;2.93;;;2.60;;
462;SDS011;218;51.902;9.542;2023-03-23T12:55:31;3.00;;;2.50;;
462;SDS011;218;51.902;9.542;2023-03-23T12:58:04;6.03;;;2.80;;
462;SDS011;218;51.902;9.542;2023-03-23T13:00:34;4.67;;;2.77;;
462;SDS011;218;51.902;9.542;2023-03-23T13:03:15;4.87;;;2.77;;
462;SDS011;218;51.902;9.542;2023-03-23T13:05:47;5.53;;;2.60;;
462;SDS011;218;51.902;9.542;2023-03-23T13:08:21;3.90;;;2.40;;
462;SDS011;218;51.902;9.542;2023-03-23T13:10:53;2.50;;;2.30;;
462;SDS011;218;51.902;9.542;2023-03-23T13:13:27;3.53;;;2.77;;
462;SDS011;218;51.902;9.542;2023-03-23T13:16:08;3.40;;;3.10;;
462;SDS011;218;51.902;9.542;2023-03-23T13:18:41;8.93;;;3.00;;
462;SDS011;218;51.902;9.542;2023-03-23T13:21:25;2.80;;;2.60;;
462;SDS011;218;51.902;9.542;2023-03-23T13:23:58;3.23;;;2.93;;
462;SDS011;218;51.902;9.542;2023-03-23T13:26:28;2.50;;;2.30;;
462;SDS011;218;51.902;9.542;2023-03-23T13:28:58;6.50;;;2.87;;
462;SDS011;218;51.902;9.542;2023-03-23T13:31:28;3.00;;;2.70;;
462;SDS011;218;51.902;9.542;2023-03-23T13:33:59;3.93;;;2.80;;
462;SDS011;218;51.902;9.542;2023-03-23T13:36:30;2.53;;;2.40;;
462;SDS011;218;51.902;9.542;2023-03-23T13:38:59;2.80;;;2.60;;
462;SDS011;218;51.902;9.542;2023-03-23T13:41:29;5.00;;;2.90;;
462;SDS011;218;51.902;9.542;2023-03-23T13:44:16;2.73;;;2.50;;
462;SDS011;218;51.902;9.542;2023-03-23T13:46:56;4.40;;;2.60;;
462;SDS011;218;51.902;9.542;2023-03-23T13:49:32;2.43;;;2.23;;
462;SDS011;218;51.902;9.542;2023-03-23T13:52:13;4.00;;;2.63;;
462;SDS011;218;51.902;9.542;2023-03-23T13:54:43;3.33;;;3.03;;
462;SDS011;218;51.902;9.542;2023-03-23T13:57:23;5.17;;;2.80;;
462;SDS011;218;51.902;9.542;2023-03-23T14:00:12;2.90;;;2.70;;
462;SDS011;218;51.902;9.542;2023-03-23T14:02:58;4.40;;;2.77;;
462;SDS011;218;51.902;9.542;2023-03-23T14:05:34;3.53;;;2.80;;
462;SDS011;218;51.902;9.542;2023-03-23T14:08:09;3.50;;;3.20;;
462;SDS011;218;51.902;9.542;2023-03-23T14:10:39;3.10;;;2.90;;
462;SDS011;218;51.902;9.542;2023-03-23T14:13:15;3.17;;;2.90;;
462;SDS011;218;51.902;9.542;2023-03-23T14:15:53;3.73;;;3.50;;
462;SDS011;218;51.902;9.542;2023-03-23T14:18:23;3.00;;;2.80;;
462;SDS011;218;51.902;9.542;2023-03-23T14:20:52;3.03;;;2.83;;
462;SDS011;218;51.902;9.542;2023-03-23T14:23:19;3.10;;;3.00;;
462;SDS011;218;51.902;9.542;2023-03-23T14:25:54;2.63;;;2.53;;
462;SDS011;218;51.902;9.542;2023-03-23T14:28:23;2.90;;;2.70;;
462;SDS011;218;51.902;9.542;2023-03-23T14:30:54;3.40;;;3.20;;
462;SDS011;218;51.902;9.542;2023-03-23T14:33:24;3.30;;;3.00;;
462;SDS011;218;51.902;9.542;2023-03-23T14:35:52;3.50;;;3.30;;
462;SDS011;218;51.902;9.542;2023-03-23T14:38:20;3.50;;;3.20;;
462;SDS011;218;51.902;9.542;2023-03-23T14:40:51;3.60;;;3.40;;
462;SDS011;218;51.902;9.542;2023-03-23T14:43:20;2.83;;;2.73;;
462;SDS011;218;51.902;9.542;2023-03-23T14:45:50;4.13;;;3.83;;
462;SDS011;218;51.902;9.542;2023-03-23T14:48:24;2.83;;;2.60;;
462;SDS011;218;51.902;9.542;2023-03-23T14:50:55;3.53;;;3.23;;
462;SDS011;218;51.902;9.542;2023-03-23T14:53:23;3.93;;;3.67;;
462;SDS011;218;51.902;9.542;2023-03-23T14:55:53;3.67;;;3.47;;
462;SDS011;218;51.902;9.542;2023-03-23T14:58:22;6.10;;;3.30;;
462;SDS011;218;51.902;9.542;2023-03-23T15:00:52;3.83;;;3.43;;
462;SDS011;218;51.902;9.542;2023-03-23T15:03:24;4.63;;;3.40;;
462;SDS011;218;51.902;9.542;2023-03-23T15:05:53;3.73;;;3.37;;
462;SDS011;218;51.902;9.542;2023-03-23T15:08:23;4.03;;;3.83;;
462;SDS011;218;51.902;9.542;2023-03-23T15:11:03;3.50;;;3.20;;
462;SDS011;218;51.902;9.542;2023-03-23T15:13:33;2.60;;;2.50;;
462;SDS011;218;51.902;9.542;2023-03-23T15:16:02;3.17;;;2.97;;
462;SDS011;218;51.902;9.542;2023-03-23T15:18:33;3.20;;;3.00;;
462;SDS011;218;51.902;9.542;2023-03-23T15:21:08;3.23;;;3.03;;
462;SDS011;218;51.902;9.542;2023-03-23T15:23:40;3.40;;;3.20;;
462;SDS011;218;51.902;9.542;2023-03-23T15:26:09;3.97;;;3.57;;
462;SDS011;218;51.902;9.542;2023-03-23T15:29:00;3.90;;;3.60;;
462;SDS011;218;51.902;9.542;2023-03-23T15:31:27;4.20;;;3.90;;
462;SDS011;218;51.902;9.542;2023-03-23T15:33:56;3.40;;;3.20;;
462;SDS011;218;51.902;9.542;2023-03-23T15:36:30;6.73;;;4.07;;
462;SDS011;218;51.902;9.542;2023-03-23T15:38:58;4.13;;;3.83;;
462;SDS011;218;51.902;9.542;2023-03-23T15:41:26;5.90;;;5.50;;
462;SDS011;218;51.902;9.542;2023-03-23T15:43:55;6.40;;;5.93;;
462;SDS011;218;51.902;9.542;2023-03-23T15:46:24;8.27;;;7.67;;
462;SDS011;218;51.902;9.542;2023-03-23T15:48:52;8.23;;;7.53;;
462;SDS011;218;51.902;9.542;2023-03-23T15:51:32;8.60;;;8.00;;
462;SDS011;218;51.902;9.542;2023-03-23T15:53:59;6.30;;;5.97;;
462;SDS011;218;51.902;9.542;2023-03-23T15:56:26;7.43;;;6.93;;
462;SDS011;218;51.902;9.542;2023-03-23T15:58:56;7.40;;;6.90;;
462;SDS011;218;51.902;9.542;2023-03-23T16:01:25;6.83;;;6.47;;
462;SDS011;218;51.902;9.542;2023-03-23T16:03:54;6.77;;;6.27;;
462;SDS011;218;51.902;9.542;2023-03-23T16:06:23;6.47;;;5.97;;
462;SDS011;218;51.902;9.542;2023-03-23T16:08:53;6.43;;;5.97;;
462;SDS011;218;51.902;9.542;2023-03-23T16:11:21;8.03;;;7.40;;
462;SDS011;218;51.902;9.542;2023-03-23T16:13:49;7.47;;;7.03;;
462;SDS011;218;51.902;9.542;2023-03-23T16:16:17;8.10;;;7.47;;
462;SDS011;218;51.902;9.542;2023-03-23T16:18:46;8.60;;;8.00;;
462;SDS011;218;51.902;9.542;2023-03-23T16:21:13;7.93;;;7.23;;
462;SDS011;218;51.902;9.542;2023-03-23T16:23:40;7.47;;;6.90;;